DLH595 DNAA-EDDF
Flight info
| Callsign | DLH595 |
|---|---|
| Flight time | N/A |
| Altitude | 38000 |
| Route | OXORU DCT MIMBA UA604 AS UR978 BOD UG362 EBA UG869 MAKEB UM858 DOPEL DCT DEC DCT UPDUT DCT CORSI DCT OKROK DCT AKUTI DCT TORTU DCT ERTEV DCT ABESI DCT LADOL T163 EMPAX |
| Aircraft | A346/H-SDE2E3FGHIJ3J4J5M1RWXY/LB1D1 |
Departure
| Time | N/A |
|---|---|
| Airport | Nnamdi Azikiwe International Airport (DNAA) |
Arrival
| Time | 2026-04-17 21:14 |
|---|---|
| Airport | Frankfurt Main Airport (EDDF) |
| Time | Latitude | Longitude | Altitude | Speed | Heading |
|---|---|---|---|---|---|
| 2026-04-17 18:58 | 34.82442 | 9.16983 | 38118 ft | 467 kts | 356° |
| 2026-04-17 18:58 | 34.85719 | 9.16771 | 38122 ft | 466 kts | 355° |
| 2026-04-17 18:58 | 34.92126 | 9.15943 | 38125 ft | 466 kts | 353° |
| 2026-04-17 18:59 | 34.98572 | 9.14998 | 38127 ft | 466 kts | 353° |
| 2026-04-17 18:59 | 35.05029 | 9.14052 | 38132 ft | 466 kts | 353° |
| 2026-04-17 19:00 | 35.11468 | 9.13111 | 38139 ft | 466 kts | 353° |
| 2026-04-17 19:00 | 35.17903 | 9.12169 | 38141 ft | 465 kts | 353° |
| 2026-04-17 19:01 | 35.24330 | 9.11227 | 38143 ft | 465 kts | 353° |
| 2026-04-17 19:01 | 35.30753 | 9.10287 | 38140 ft | 465 kts | 353° |
| 2026-04-17 19:02 | 35.37175 | 9.09344 | 38144 ft | 465 kts | 353° |
| 2026-04-17 19:02 | 35.43594 | 9.08398 | 38164 ft | 464 kts | 353° |
| 2026-04-17 19:03 | 35.49989 | 9.07457 | 38159 ft | 463 kts | 353° |
| 2026-04-17 19:03 | 35.56382 | 9.06527 | 38162 ft | 463 kts | 354° |
| 2026-04-17 19:04 | 35.62784 | 9.05714 | 38171 ft | 462 kts | 354° |
| 2026-04-17 19:04 | 35.69188 | 9.04916 | 38170 ft | 463 kts | 354° |
| 2026-04-17 19:05 | 35.75589 | 9.04109 | 38169 ft | 463 kts | 354° |
| 2026-04-17 19:05 | 35.81996 | 9.03297 | 38167 ft | 462 kts | 354° |
| 2026-04-17 19:06 | 35.88398 | 9.02483 | 38170 ft | 463 kts | 354° |
| 2026-04-17 19:06 | 35.94801 | 9.01666 | 38172 ft | 462 kts | 354° |
| 2026-04-17 19:07 | 36.01179 | 9.00852 | 38177 ft | 461 kts | 354° |
| 2026-04-17 19:07 | 36.07564 | 9.00036 | 38183 ft | 461 kts | 354° |
| 2026-04-17 19:08 | 36.13946 | 8.99218 | 38177 ft | 461 kts | 354° |
| 2026-04-17 19:08 | 36.20326 | 8.98398 | 38175 ft | 460 kts | 354° |
| 2026-04-17 19:09 | 36.26655 | 8.97585 | 38175 ft | 460 kts | 354° |
| 2026-04-17 19:09 | 36.33024 | 8.96766 | 38185 ft | 460 kts | 354° |
| 2026-04-17 19:10 | 36.39392 | 8.95946 | 38179 ft | 460 kts | 354° |
| 2026-04-17 19:10 | 36.45756 | 8.95125 | 38175 ft | 460 kts | 354° |
| 2026-04-17 19:11 | 36.52156 | 8.94298 | 38186 ft | 460 kts | 354° |
| 2026-04-17 19:11 | 36.58542 | 8.93471 | 38182 ft | 460 kts | 354° |
| 2026-04-17 19:12 | 36.64910 | 8.92646 | 38183 ft | 460 kts | 354° |
| 2026-04-17 19:12 | 36.71313 | 8.91814 | 38174 ft | 459 kts | 354° |
| 2026-04-17 19:13 | 36.77665 | 8.90987 | 38174 ft | 459 kts | 354° |
| 2026-04-17 19:13 | 36.84020 | 8.90160 | 38171 ft | 459 kts | 354° |
| 2026-04-17 19:14 | 36.90375 | 8.89330 | 38171 ft | 459 kts | 354° |
| 2026-04-17 19:14 | 36.96726 | 8.88557 | 38167 ft | 458 kts | 356° |
| 2026-04-17 19:15 | 37.03097 | 8.88358 | 38173 ft | 458 kts | 0° |
| 2026-04-17 19:15 | 37.09472 | 8.88378 | 38168 ft | 458 kts | 0° |
| 2026-04-17 19:16 | 37.15847 | 8.88366 | 38172 ft | 458 kts | 0° |
| 2026-04-17 19:16 | 37.21139 | 8.88366 | 38174 ft | 457 kts | 0° |
| 2026-04-17 19:17 | 37.27497 | 8.88365 | 38173 ft | 457 kts | 0° |
| 2026-04-17 19:17 | 37.33857 | 8.88368 | 38172 ft | 457 kts | 0° |
| 2026-04-17 19:18 | 37.40215 | 8.88361 | 38174 ft | 457 kts | 0° |
| 2026-04-17 19:18 | 37.46563 | 8.88366 | 38169 ft | 456 kts | 0° |
| 2026-04-17 19:19 | 37.52904 | 8.88366 | 38170 ft | 456 kts | 0° |
| 2026-04-17 19:19 | 37.59249 | 8.88362 | 38165 ft | 456 kts | 0° |
| 2026-04-17 19:20 | 37.65586 | 8.88366 | 38161 ft | 455 kts | 0° |
| 2026-04-17 19:20 | 37.71916 | 8.88365 | 38162 ft | 454 kts | 0° |
| 2026-04-17 19:21 | 37.78237 | 8.88360 | 38156 ft | 454 kts | 360° |
| 2026-04-17 19:21 | 37.84594 | 8.88361 | 38155 ft | 454 kts | 360° |
| 2026-04-17 19:22 | 37.90904 | 8.88364 | 38152 ft | 453 kts | 360° |
| 2026-04-17 19:22 | 37.97212 | 8.88364 | 38150 ft | 453 kts | 360° |
| 2026-04-17 19:23 | 38.06662 | 8.88359 | 38151 ft | 453 kts | 0° |
| 2026-04-17 19:24 | 38.12967 | 8.88360 | 38147 ft | 453 kts | 360° |
| 2026-04-17 19:24 | 38.19268 | 8.88361 | 38144 ft | 453 kts | 0° |
| 2026-04-17 19:25 | 38.25567 | 8.88360 | 38142 ft | 453 kts | 360° |
| 2026-04-17 19:25 | 38.31868 | 8.88359 | 38158 ft | 453 kts | 0° |
| 2026-04-17 19:26 | 38.38170 | 8.88360 | 38144 ft | 452 kts | 360° |
| 2026-04-17 19:26 | 38.44424 | 8.88360 | 38142 ft | 452 kts | 360° |
| 2026-04-17 19:27 | 38.50714 | 8.88363 | 38142 ft | 452 kts | 0° |
| 2026-04-17 19:27 | 38.57001 | 8.88803 | 38133 ft | 452 kts | 4° |
| 2026-04-17 19:28 | 38.63265 | 8.89474 | 38136 ft | 452 kts | 4° |
| 2026-04-17 19:28 | 38.69532 | 8.90154 | 38130 ft | 452 kts | 4° |
| 2026-04-17 19:29 | 38.75793 | 8.90830 | 38135 ft | 452 kts | 4° |
| 2026-04-17 19:29 | 38.82059 | 8.91507 | 38137 ft | 452 kts | 4° |
| 2026-04-17 19:30 | 38.88328 | 8.92183 | 38130 ft | 451 kts | 4° |
| 2026-04-17 19:30 | 38.94603 | 8.92861 | 38134 ft | 451 kts | 4° |
| 2026-04-17 19:31 | 39.00859 | 8.93538 | 38127 ft | 451 kts | 4° |
| 2026-04-17 19:31 | 39.07124 | 8.94217 | 38122 ft | 452 kts | 4° |
| 2026-04-17 19:32 | 39.13385 | 8.94897 | 38117 ft | 451 kts | 4° |
| 2026-04-17 19:32 | 39.19648 | 8.95579 | 38114 ft | 451 kts | 4° |
| 2026-04-17 19:33 | 39.25912 | 8.96262 | 38112 ft | 452 kts | 4° |
| 2026-04-17 19:33 | 39.32179 | 8.96946 | 38089 ft | 452 kts | 4° |
| 2026-04-17 19:34 | 39.38456 | 8.97210 | 38136 ft | 452 kts | 359° |
| 2026-04-17 19:34 | 39.44733 | 8.96876 | 38144 ft | 452 kts | 357° |
| 2026-04-17 19:35 | 39.51013 | 8.96462 | 38142 ft | 452 kts | 357° |
| 2026-04-17 19:35 | 39.57289 | 8.96047 | 38145 ft | 452 kts | 357° |
| 2026-04-17 19:36 | 39.63564 | 8.95634 | 38518 ft | 451 kts | 357° |
| 2026-04-17 19:36 | 39.66698 | 8.95428 | 38806 ft | 451 kts | 357° |
| 2026-04-17 19:36 | 39.69827 | 8.95224 | 39035 ft | 450 kts | 357° |
| 2026-04-17 19:36 | 39.72956 | 8.95020 | 39263 ft | 450 kts | 357° |
| 2026-04-17 19:37 | 39.76085 | 8.94815 | 39501 ft | 450 kts | 356° |
| 2026-04-17 19:37 | 39.79219 | 8.94609 | 39730 ft | 450 kts | 356° |
| 2026-04-17 19:37 | 39.82344 | 8.94403 | 39969 ft | 450 kts | 356° |
| 2026-04-17 19:37 | 39.85468 | 8.94198 | 40138 ft | 451 kts | 356° |
| 2026-04-17 19:38 | 39.88622 | 8.93989 | 40151 ft | 455 kts | 356° |
| 2026-04-17 19:38 | 39.94961 | 8.93571 | 40157 ft | 456 kts | 356° |
| 2026-04-17 19:39 | 40.01316 | 8.93151 | 40155 ft | 456 kts | 356° |
| 2026-04-17 19:39 | 40.07660 | 8.92730 | 40153 ft | 456 kts | 356° |
| 2026-04-17 19:40 | 40.14010 | 8.92309 | 40154 ft | 456 kts | 356° |
| 2026-04-17 19:40 | 40.20354 | 8.91888 | 40152 ft | 456 kts | 356° |
| 2026-04-17 19:41 | 40.26648 | 8.91469 | 40152 ft | 456 kts | 356° |
| 2026-04-17 19:41 | 40.33035 | 8.91042 | 40149 ft | 456 kts | 356° |
| 2026-04-17 19:42 | 40.39373 | 8.90619 | 40147 ft | 456 kts | 356° |
| 2026-04-17 19:42 | 40.45673 | 8.90197 | 40149 ft | 456 kts | 356° |
| 2026-04-17 19:43 | 40.52013 | 8.89772 | 40151 ft | 456 kts | 356° |
| 2026-04-17 19:43 | 40.58351 | 8.89346 | 40151 ft | 456 kts | 356° |
| 2026-04-17 19:44 | 40.64694 | 8.88919 | 40149 ft | 456 kts | 356° |
| 2026-04-17 19:44 | 40.71031 | 8.88491 | 40147 ft | 456 kts | 356° |
| 2026-04-17 19:45 | 40.77373 | 8.88063 | 40139 ft | 456 kts | 356° |
| 2026-04-17 19:45 | 40.83710 | 8.87635 | 40141 ft | 456 kts | 356° |
| 2026-04-17 19:46 | 40.90053 | 8.87204 | 40138 ft | 456 kts | 356° |
| 2026-04-17 19:46 | 40.96387 | 8.86773 | 40135 ft | 456 kts | 356° |
| 2026-04-17 19:47 | 41.02738 | 8.86340 | 40130 ft | 456 kts | 356° |
| 2026-04-17 19:47 | 41.09082 | 8.85907 | 40130 ft | 456 kts | 356° |
| 2026-04-17 19:48 | 41.15428 | 8.85472 | 40129 ft | 457 kts | 356° |
| 2026-04-17 19:48 | 41.21749 | 8.84754 | 40122 ft | 456 kts | 352° |
| 2026-04-17 19:49 | 41.28035 | 8.83525 | 40118 ft | 456 kts | 351° |
| 2026-04-17 19:49 | 41.34314 | 8.82247 | 40118 ft | 457 kts | 351° |
| 2026-04-17 19:50 | 41.40639 | 8.81455 | 40114 ft | 457 kts | 356° |
| 2026-04-17 19:50 | 41.47008 | 8.81485 | 40114 ft | 458 kts | 1° |
| 2026-04-17 19:51 | 41.53375 | 8.81837 | 40118 ft | 458 kts | 1° |
| 2026-04-17 19:51 | 41.59748 | 8.82206 | 40117 ft | 458 kts | 1° |
| 2026-04-17 19:52 | 41.66121 | 8.82570 | 40118 ft | 458 kts | 1° |
| 2026-04-17 19:52 | 41.72493 | 8.82932 | 40135 ft | 458 kts | 1° |
| 2026-04-17 19:53 | 41.78873 | 8.83292 | 40142 ft | 459 kts | 1° |
| 2026-04-17 19:53 | 41.85245 | 8.83653 | 40142 ft | 458 kts | 1° |
| 2026-04-17 19:54 | 41.91626 | 8.84015 | 40145 ft | 459 kts | 1° |
| 2026-04-17 19:54 | 41.98007 | 8.84377 | 40144 ft | 459 kts | 1° |
| 2026-04-17 19:55 | 42.04388 | 8.84741 | 40142 ft | 459 kts | 1° |
| 2026-04-17 19:55 | 42.10769 | 8.85105 | 40139 ft | 459 kts | 1° |
| 2026-04-17 19:56 | 42.17149 | 8.85470 | 40142 ft | 459 kts | 1° |
| 2026-04-17 19:56 | 42.23534 | 8.85835 | 40134 ft | 459 kts | 1° |
| 2026-04-17 19:57 | 42.29916 | 8.86202 | 40140 ft | 459 kts | 1° |
| 2026-04-17 19:57 | 42.36303 | 8.86569 | 40136 ft | 459 kts | 1° |
| 2026-04-17 19:58 | 42.42688 | 8.86938 | 40145 ft | 459 kts | 1° |
| 2026-04-17 19:58 | 42.47995 | 8.87244 | 40140 ft | 459 kts | 1° |
| 2026-04-17 19:59 | 42.54388 | 8.87613 | 40143 ft | 460 kts | 1° |
| 2026-04-17 19:59 | 42.60778 | 8.87983 | 40142 ft | 460 kts | 1° |
| 2026-04-17 20:00 | 42.68206 | 8.88415 | 40144 ft | 460 kts | 1° |
| 2026-04-17 20:00 | 42.73558 | 8.88726 | 40139 ft | 459 kts | 1° |
| 2026-04-17 20:01 | 42.79944 | 8.89103 | 40137 ft | 460 kts | 1° |
| 2026-04-17 20:01 | 42.86327 | 8.89767 | 40136 ft | 460 kts | 3° |
| 2026-04-17 20:02 | 42.92712 | 8.90519 | 40138 ft | 461 kts | 3° |
| 2026-04-17 20:02 | 42.99060 | 8.91264 | 40138 ft | 461 kts | 3° |
| 2026-04-17 20:03 | 43.05442 | 8.92010 | 40140 ft | 461 kts | 3° |
| 2026-04-17 20:03 | 43.11854 | 8.92760 | 40142 ft | 461 kts | 3° |
| 2026-04-17 20:04 | 43.18250 | 8.93508 | 40139 ft | 461 kts | 3° |
| 2026-04-17 20:04 | 43.24647 | 8.94253 | 40136 ft | 461 kts | 3° |
| 2026-04-17 20:05 | 43.31045 | 8.94967 | 40140 ft | 462 kts | 3° |
| 2026-04-17 20:05 | 43.37465 | 8.95666 | 40134 ft | 462 kts | 2° |
| 2026-04-17 20:06 | 43.43896 | 8.95866 | 40133 ft | 461 kts | 359° |
| 2026-04-17 20:06 | 43.50338 | 8.95857 | 40130 ft | 461 kts | 358° |
| 2026-04-17 20:07 | 43.56762 | 8.95843 | 40132 ft | 462 kts | 358° |
| 2026-04-17 20:07 | 43.63183 | 8.95836 | 40129 ft | 462 kts | 358° |
| 2026-04-17 20:08 | 43.69615 | 8.95981 | 40129 ft | 462 kts | 360° |
| 2026-04-17 20:08 | 43.76045 | 8.96213 | 40131 ft | 462 kts | 360° |
| 2026-04-17 20:09 | 43.82480 | 8.96433 | 40132 ft | 462 kts | 360° |
| 2026-04-17 20:09 | 43.88915 | 8.96646 | 40120 ft | 462 kts | 359° |
| 2026-04-17 20:10 | 43.95353 | 8.96857 | 40123 ft | 463 kts | 359° |
| 2026-04-17 20:10 | 44.01791 | 8.97065 | 40122 ft | 463 kts | 359° |
| 2026-04-17 20:11 | 44.08187 | 8.97273 | 40124 ft | 463 kts | 359° |
| 2026-04-17 20:11 | 44.14632 | 8.97485 | 40127 ft | 464 kts | 359° |
| 2026-04-17 20:12 | 44.21085 | 8.97694 | 40123 ft | 464 kts | 359° |
| 2026-04-17 20:12 | 44.27547 | 8.97906 | 40137 ft | 464 kts | 359° |
| 2026-04-17 20:13 | 44.34015 | 8.98120 | 40125 ft | 464 kts | 359° |
| 2026-04-17 20:13 | 44.40480 | 8.98332 | 40120 ft | 464 kts | 359° |
| 2026-04-17 20:14 | 44.46974 | 8.98545 | 40119 ft | 464 kts | 359° |
| 2026-04-17 20:14 | 44.53460 | 8.98760 | 40120 ft | 464 kts | 359° |
| 2026-04-17 20:15 | 44.59921 | 8.98974 | 40120 ft | 464 kts | 359° |
| 2026-04-17 20:15 | 44.66379 | 8.99189 | 40128 ft | 464 kts | 359° |
| 2026-04-17 20:16 | 44.72832 | 8.99404 | 40131 ft | 464 kts | 359° |
| 2026-04-17 20:16 | 44.79293 | 8.99618 | 40136 ft | 464 kts | 359° |
| 2026-04-17 20:17 | 44.85774 | 8.99835 | 40137 ft | 464 kts | 359° |
| 2026-04-17 20:17 | 44.92243 | 9.00051 | 40126 ft | 464 kts | 359° |
| 2026-04-17 20:18 | 44.98698 | 9.00268 | 40119 ft | 464 kts | 359° |
| 2026-04-17 20:18 | 45.05154 | 9.00485 | 40144 ft | 464 kts | 359° |
| 2026-04-17 20:19 | 45.11608 | 9.00702 | 40140 ft | 464 kts | 359° |
| 2026-04-17 20:19 | 45.18064 | 9.00920 | 40135 ft | 464 kts | 359° |
| 2026-04-17 20:20 | 45.24525 | 9.01138 | 40131 ft | 464 kts | 359° |
| 2026-04-17 20:20 | 45.30978 | 9.01357 | 40112 ft | 464 kts | 359° |
| 2026-04-17 20:21 | 45.37446 | 9.01577 | 40114 ft | 464 kts | 359° |
| 2026-04-17 20:21 | 45.43927 | 9.01798 | 40122 ft | 464 kts | 359° |
| 2026-04-17 20:22 | 45.50468 | 9.02021 | 40115 ft | 464 kts | 359° |
| 2026-04-17 20:22 | 45.56880 | 9.02241 | 40116 ft | 464 kts | 359° |
| 2026-04-17 20:23 | 45.63382 | 9.02464 | 40123 ft | 464 kts | 359° |
| 2026-04-17 20:23 | 45.69794 | 9.02684 | 40111 ft | 465 kts | 359° |
| 2026-04-17 20:24 | 45.76257 | 9.02907 | 40126 ft | 465 kts | 359° |
| 2026-04-17 20:24 | 45.82728 | 9.03130 | 40140 ft | 465 kts | 359° |
| 2026-04-17 20:25 | 45.89189 | 9.03353 | 40143 ft | 464 kts | 359° |
| 2026-04-17 20:25 | 45.95651 | 9.03577 | 40140 ft | 465 kts | 359° |
| 2026-04-17 20:26 | 46.02115 | 9.03802 | 40150 ft | 465 kts | 359° |
| 2026-04-17 20:26 | 46.08577 | 9.04026 | 40132 ft | 464 kts | 359° |
| 2026-04-17 20:27 | 46.15031 | 9.04242 | 40137 ft | 464 kts | 358° |
| 2026-04-17 20:27 | 46.21479 | 9.04074 | 40148 ft | 463 kts | 356° |
| 2026-04-17 20:28 | 46.27924 | 9.03787 | 40144 ft | 463 kts | 356° |
| 2026-04-17 20:28 | 46.34371 | 9.03500 | 40145 ft | 463 kts | 356° |
| 2026-04-17 20:29 | 46.40815 | 9.03219 | 40167 ft | 463 kts | 356° |
| 2026-04-17 20:29 | 46.47255 | 9.02938 | 40180 ft | 463 kts | 356° |
| 2026-04-17 20:30 | 46.56917 | 9.02517 | 40172 ft | 463 kts | 356° |
| 2026-04-17 20:30 | 46.63357 | 9.02238 | 40190 ft | 463 kts | 356° |
| 2026-04-17 20:31 | 46.69787 | 9.01956 | 40187 ft | 462 kts | 356° |
| 2026-04-17 20:31 | 46.76213 | 9.01675 | 40193 ft | 462 kts | 356° |
| 2026-04-17 20:32 | 46.82636 | 9.01393 | 40200 ft | 462 kts | 356° |
| 2026-04-17 20:32 | 46.89054 | 9.01110 | 40195 ft | 461 kts | 356° |
| 2026-04-17 20:33 | 46.95428 | 9.00829 | 40203 ft | 461 kts | 356° |
| 2026-04-17 20:33 | 47.01847 | 9.00546 | 40200 ft | 461 kts | 356° |
| 2026-04-17 20:34 | 47.08264 | 9.00263 | 40206 ft | 462 kts | 356° |
| 2026-04-17 20:34 | 47.14680 | 8.99977 | 40203 ft | 461 kts | 356° |
| 2026-04-17 20:35 | 47.21090 | 8.99691 | 40208 ft | 461 kts | 356° |
| 2026-04-17 20:35 | 47.27502 | 8.99404 | 40215 ft | 461 kts | 356° |
| 2026-04-17 20:36 | 47.33908 | 8.99116 | 40211 ft | 461 kts | 356° |
| 2026-04-17 20:36 | 47.40311 | 8.98829 | 40213 ft | 460 kts | 356° |
| 2026-04-17 20:37 | 47.46716 | 8.98541 | 40217 ft | 460 kts | 356° |
| 2026-04-17 20:37 | 47.53121 | 8.98252 | 40212 ft | 461 kts | 356° |
| 2026-04-17 20:38 | 47.59534 | 8.97962 | 40208 ft | 461 kts | 356° |
| 2026-04-17 20:38 | 47.65940 | 8.97672 | 40206 ft | 461 kts | 356° |
| 2026-04-17 20:39 | 47.72361 | 8.97381 | 40208 ft | 462 kts | 356° |
| 2026-04-17 20:39 | 47.78798 | 8.97086 | 40205 ft | 462 kts | 356° |
| 2026-04-17 20:40 | 47.85227 | 8.96793 | 40207 ft | 463 kts | 356° |
| 2026-04-17 20:40 | 47.91650 | 8.96499 | 39826 ft | 460 kts | 356° |
| 2026-04-17 20:41 | 47.94845 | 8.96352 | 39239 ft | 459 kts | 356° |
| 2026-04-17 20:41 | 47.98045 | 8.96204 | 38597 ft | 459 kts | 356° |
| 2026-04-17 20:41 | 48.01229 | 8.96054 | 37844 ft | 459 kts | 356° |
| 2026-04-17 20:41 | 48.04443 | 8.95903 | 37085 ft | 459 kts | 356° |
| 2026-04-17 20:42 | 48.07638 | 8.95753 | 36412 ft | 459 kts | 357° |
| 2026-04-17 20:42 | 48.10852 | 8.95606 | 35695 ft | 460 kts | 357° |
| 2026-04-17 20:42 | 48.14060 | 8.95492 | 34993 ft | 462 kts | 359° |
| 2026-04-17 20:42 | 48.17278 | 8.95585 | 34303 ft | 464 kts | 1° |
| 2026-04-17 20:43 | 48.20505 | 8.95916 | 33539 ft | 465 kts | 4° |
| 2026-04-17 20:43 | 48.23730 | 8.96376 | 32804 ft | 466 kts | 5° |
| 2026-04-17 20:43 | 48.26910 | 8.96864 | 32091 ft | 466 kts | 5° |
| 2026-04-17 20:43 | 48.30133 | 8.97366 | 31541 ft | 463 kts | 5° |
| 2026-04-17 20:44 | 48.33315 | 8.97861 | 31158 ft | 456 kts | 4° |
| 2026-04-17 20:44 | 48.35443 | 8.98188 | 30813 ft | 454 kts | 4° |
| 2026-04-17 20:44 | 48.39582 | 8.98820 | 30197 ft | 449 kts | 4° |
| 2026-04-17 20:44 | 48.42698 | 8.99294 | 29606 ft | 446 kts | 4° |
| 2026-04-17 20:45 | 48.44779 | 8.99610 | 29271 ft | 443 kts | 4° |
| 2026-04-17 20:45 | 48.47838 | 9.00077 | 28823 ft | 438 kts | 4° |
| 2026-04-17 20:45 | 48.50885 | 9.00541 | 28393 ft | 433 kts | 4° |
| 2026-04-17 20:45 | 48.53887 | 9.01000 | 27976 ft | 428 kts | 4° |
| 2026-04-17 20:46 | 48.56834 | 9.01451 | 27556 ft | 424 kts | 4° |
| 2026-04-17 20:46 | 48.59756 | 9.01898 | 27150 ft | 420 kts | 4° |
| 2026-04-17 20:46 | 48.62605 | 9.02363 | 26748 ft | 417 kts | 6° |
| 2026-04-17 20:46 | 48.65508 | 9.02995 | 26342 ft | 414 kts | 7° |
| 2026-04-17 20:47 | 48.68335 | 9.03664 | 25943 ft | 411 kts | 7° |
| 2026-04-17 20:47 | 48.71151 | 9.04342 | 25541 ft | 408 kts | 7° |
| 2026-04-17 20:47 | 48.73947 | 9.05015 | 25152 ft | 406 kts | 7° |
| 2026-04-17 20:47 | 48.76732 | 9.05685 | 24750 ft | 404 kts | 7° |
| 2026-04-17 20:48 | 48.79501 | 9.06348 | 24354 ft | 402 kts | 7° |
| 2026-04-17 20:48 | 48.82259 | 9.07006 | 23951 ft | 400 kts | 7° |
| 2026-04-17 20:48 | 48.85060 | 9.07675 | 23506 ft | 413 kts | 7° |
| 2026-04-17 20:48 | 48.87909 | 9.08330 | 23044 ft | 414 kts | 6° |
| 2026-04-17 20:49 | 48.90780 | 9.08815 | 22604 ft | 412 kts | 4° |
| 2026-04-17 20:49 | 48.93624 | 9.09225 | 22181 ft | 409 kts | 4° |
| 2026-04-17 20:49 | 48.96454 | 9.09620 | 21770 ft | 407 kts | 3° |
| 2026-04-17 20:49 | 48.99264 | 9.10014 | 21354 ft | 405 kts | 3° |
| 2026-04-17 20:50 | 49.02062 | 9.10410 | 20915 ft | 403 kts | 4° |
| 2026-04-17 20:50 | 49.04843 | 9.10805 | 20416 ft | 400 kts | 4° |
| 2026-04-17 20:50 | 49.07601 | 9.11198 | 19929 ft | 397 kts | 4° |
| 2026-04-17 20:50 | 49.10342 | 9.11588 | 19433 ft | 394 kts | 4° |
| 2026-04-17 20:51 | 49.13065 | 9.11977 | 18948 ft | 391 kts | 4° |
| 2026-04-17 20:51 | 49.15769 | 9.12364 | 18464 ft | 389 kts | 4° |
| 2026-04-17 20:51 | 49.18455 | 9.12748 | 17921 ft | 387 kts | 4° |
| 2026-04-17 20:51 | 49.21126 | 9.13130 | 17415 ft | 384 kts | 4° |
| 2026-04-17 20:52 | 49.23775 | 9.13510 | 16924 ft | 381 kts | 4° |
| 2026-04-17 20:52 | 49.26407 | 9.13897 | 16435 ft | 379 kts | 4° |
| 2026-04-17 20:52 | 49.29009 | 9.14471 | 15935 ft | 377 kts | 8° |
| 2026-04-17 20:52 | 49.31576 | 9.15281 | 15453 ft | 376 kts | 11° |
| 2026-04-17 20:53 | 49.34121 | 9.16174 | 14952 ft | 374 kts | 11° |
| 2026-04-17 20:53 | 49.36656 | 9.17081 | 14454 ft | 373 kts | 11° |
| 2026-04-17 20:53 | 49.39174 | 9.17983 | 13955 ft | 371 kts | 11° |
| 2026-04-17 20:53 | 49.41686 | 9.18881 | 13460 ft | 368 kts | 11° |
| 2026-04-17 20:54 | 49.44167 | 9.19763 | 13016 ft | 364 kts | 11° |
| 2026-04-17 20:54 | 49.46629 | 9.20638 | 12555 ft | 362 kts | 12° |
| 2026-04-17 20:54 | 49.49064 | 9.21504 | 12166 ft | 356 kts | 12° |
| 2026-04-17 20:54 | 49.51454 | 9.22356 | 11904 ft | 348 kts | 12° |
| 2026-04-17 20:55 | 49.53783 | 9.23186 | 11644 ft | 339 kts | 12° |
| 2026-04-17 20:55 | 49.56056 | 9.23998 | 11385 ft | 331 kts | 12° |
| 2026-04-17 20:55 | 49.58278 | 9.24792 | 11144 ft | 324 kts | 12° |
| 2026-04-17 20:55 | 49.60458 | 9.25571 | 10892 ft | 317 kts | 12° |
| 2026-04-17 20:56 | 49.62583 | 9.26328 | 10653 ft | 310 kts | 12° |
| 2026-04-17 20:56 | 49.64662 | 9.27073 | 10404 ft | 304 kts | 13° |
| 2026-04-17 20:56 | 49.66697 | 9.27803 | 10213 ft | 295 kts | 13° |
| 2026-04-17 20:56 | 49.68661 | 9.28509 | 10206 ft | 293 kts | 13° |
| 2026-04-17 20:57 | 49.70677 | 9.29234 | 10203 ft | 294 kts | 13° |
| 2026-04-17 20:57 | 49.72667 | 9.29950 | 10198 ft | 294 kts | 13° |
| 2026-04-17 20:57 | 49.74615 | 9.30652 | 10192 ft | 281 kts | 13° |
| 2026-04-17 20:57 | 49.76475 | 9.31321 | 10191 ft | 271 kts | 13° |
| 2026-04-17 20:58 | 49.78310 | 9.31983 | 10057 ft | 269 kts | 13° |
| 2026-04-17 20:58 | 49.80099 | 9.32628 | 9790 ft | 265 kts | 13° |
| 2026-04-17 20:58 | 49.81884 | 9.33272 | 9526 ft | 262 kts | 13° |
| 2026-04-17 20:58 | 49.83673 | 9.33561 | 9241 ft | 258 kts | 352° |
| 2026-04-17 20:59 | 49.85359 | 9.32755 | 8978 ft | 253 kts | 328° |
| 2026-04-17 20:59 | 49.86689 | 9.31013 | 8730 ft | 250 kts | 306° |
| 2026-04-17 20:59 | 49.87487 | 9.28643 | 8463 ft | 248 kts | 287° |
| 2026-04-17 20:59 | 49.87983 | 9.26085 | 8221 ft | 246 kts | 284° |
| 2026-04-17 21:00 | 49.88443 | 9.23526 | 8207 ft | 246 kts | 284° |
| 2026-04-17 21:00 | 49.88909 | 9.20966 | 8200 ft | 246 kts | 284° |
| 2026-04-17 21:00 | 49.89383 | 9.18406 | 8197 ft | 247 kts | 285° |
| 2026-04-17 21:00 | 49.89863 | 9.15848 | 8200 ft | 247 kts | 285° |
| 2026-04-17 21:01 | 49.90346 | 9.13291 | 8200 ft | 247 kts | 285° |
| 2026-04-17 21:01 | 49.90830 | 9.10735 | 8202 ft | 247 kts | 285° |
| 2026-04-17 21:01 | 49.91317 | 9.08176 | 8196 ft | 246 kts | 284° |
| 2026-04-17 21:01 | 49.91801 | 9.05627 | 8192 ft | 246 kts | 284° |
| 2026-04-17 21:02 | 49.92283 | 9.03077 | 8193 ft | 246 kts | 284° |
| 2026-04-17 21:02 | 49.92763 | 9.00529 | 8193 ft | 246 kts | 284° |
| 2026-04-17 21:02 | 49.93244 | 8.97976 | 8190 ft | 246 kts | 284° |
| 2026-04-17 21:02 | 49.93749 | 8.95458 | 8186 ft | 247 kts | 292° |
| 2026-04-17 21:03 | 49.94722 | 8.93244 | 8187 ft | 250 kts | 315° |
| 2026-04-17 21:03 | 49.96203 | 8.91767 | 8188 ft | 252 kts | 339° |
| 2026-04-17 21:03 | 49.97901 | 8.91287 | 8190 ft | 254 kts | 359° |
| 2026-04-17 21:03 | 49.99693 | 8.91369 | 8193 ft | 254 kts | 2° |
| 2026-04-17 21:04 | 50.01417 | 8.91837 | 8167 ft | 255 kts | 21° |
| 2026-04-17 21:04 | 50.02915 | 8.93279 | 7926 ft | 254 kts | 45° |
| 2026-04-17 21:04 | 50.03927 | 8.95495 | 7671 ft | 251 kts | 68° |
| 2026-04-17 21:04 | 50.04546 | 8.98025 | 7422 ft | 250 kts | 72° |
| 2026-04-17 21:05 | 50.05104 | 9.00584 | 7167 ft | 249 kts | 72° |
| 2026-04-17 21:05 | 50.05666 | 9.03134 | 6945 ft | 248 kts | 72° |
| 2026-04-17 21:05 | 50.06239 | 9.05668 | 6697 ft | 247 kts | 71° |
| 2026-04-17 21:05 | 50.06821 | 9.08192 | 6387 ft | 248 kts | 71° |
| 2026-04-17 21:06 | 50.07412 | 9.10737 | 6007 ft | 251 kts | 71° |
| 2026-04-17 21:06 | 50.08078 | 9.13263 | 5620 ft | 254 kts | 57° |
| 2026-04-17 21:06 | 50.09348 | 9.15154 | 5255 ft | 255 kts | 26° |
| 2026-04-17 21:06 | 50.11021 | 9.15731 | 5180 ft | 241 kts | 354° |
| 2026-04-17 21:07 | 50.12529 | 9.14892 | 5216 ft | 229 kts | 322° |
| 2026-04-17 21:07 | 50.13470 | 9.12950 | 5230 ft | 226 kts | 292° |
| 2026-04-17 21:07 | 50.13954 | 9.10624 | 5226 ft | 225 kts | 284° |
| 2026-04-17 21:07 | 50.14361 | 9.08258 | 5206 ft | 225 kts | 283° |
| 2026-04-17 21:08 | 50.14597 | 9.05855 | 5195 ft | 224 kts | 270° |
| 2026-04-17 21:08 | 50.14435 | 9.03441 | 5197 ft | 224 kts | 257° |
| 2026-04-17 21:08 | 50.14028 | 9.01098 | 5200 ft | 223 kts | 253° |
| 2026-04-17 21:08 | 50.13572 | 8.98781 | 5193 ft | 223 kts | 251° |
| 2026-04-17 21:09 | 50.13073 | 8.96464 | 5182 ft | 223 kts | 250° |
| 2026-04-17 21:09 | 50.12547 | 8.94166 | 5070 ft | 218 kts | 249° |
| 2026-04-17 21:09 | 50.12027 | 8.91972 | 4809 ft | 213 kts | 249° |
| 2026-04-17 21:09 | 50.11507 | 8.89820 | 4517 ft | 211 kts | 249° |
| 2026-04-17 21:10 | 50.10991 | 8.87696 | 4229 ft | 208 kts | 249° |
| 2026-04-17 21:10 | 50.10480 | 8.85598 | 3950 ft | 206 kts | 249° |
| 2026-04-17 21:10 | 50.09973 | 8.83512 | 3677 ft | 203 kts | 249° |
| 2026-04-17 21:10 | 50.09483 | 8.81494 | 3412 ft | 199 kts | 249° |
| 2026-04-17 21:11 | 50.08997 | 8.79482 | 3140 ft | 192 kts | 249° |
| 2026-04-17 21:11 | 50.08540 | 8.77587 | 2888 ft | 181 kts | 249° |
| 2026-04-17 21:11 | 50.08104 | 8.75775 | 2656 ft | 177 kts | 249° |
| 2026-04-17 21:11 | 50.07676 | 8.73999 | 2432 ft | 177 kts | 249° |
| 2026-04-17 21:12 | 50.07242 | 8.72189 | 2206 ft | 176 kts | 250° |
| 2026-04-17 21:12 | 50.06813 | 8.70404 | 1980 ft | 173 kts | 250° |
| 2026-04-17 21:12 | 50.06402 | 8.68688 | 1725 ft | 163 kts | 250° |
| 2026-04-17 21:12 | 50.06020 | 8.67090 | 1499 ft | 153 kts | 250° |
| 2026-04-17 21:13 | 50.05651 | 8.65550 | 1310 ft | 151 kts | 250° |
| 2026-04-17 21:13 | 50.05285 | 8.64018 | 1116 ft | 150 kts | 250° |
| 2026-04-17 21:13 | 50.04921 | 8.62496 | 929 ft | 150 kts | 250° |
| 2026-04-17 21:13 | 50.04559 | 8.60978 | 728 ft | 149 kts | 250° |
| 2026-04-17 21:14 | 50.04199 | 8.59469 | 529 ft | 148 kts | 250° |
| 2026-04-17 21:14 | 50.03841 | 8.57967 | 373 ft | 145 kts | 251° |
| 2026-04-17 21:14 | 50.03558 | 8.56776 | 367 ft | 85 kts | 249° |
| 2026-04-17 21:14 | 50.03421 | 8.56205 | 369 ft | 35 kts | 250° |
| 2026-04-17 21:15 | 50.03343 | 8.55877 | 365 ft | 27 kts | 250° |
| 2026-04-17 21:15 | 50.03310 | 8.55573 | 361 ft | 28 kts | 273° |
| 2026-04-17 21:15 | 50.03332 | 8.55331 | 371 ft | 20 kts | 279° |
| 2026-04-17 21:15 | 50.03369 | 8.55178 | 371 ft | 13 kts | 327° |
| 2026-04-17 21:16 | 50.03435 | 8.55239 | 373 ft | 15 kts | 68° |
| 2026-04-17 21:16 | 50.03478 | 8.55409 | 371 ft | 19 kts | 69° |
| 2026-04-17 21:16 | 50.03528 | 8.55619 | 372 ft | 22 kts | 70° |
| 2026-04-17 21:16 | 50.03584 | 8.55859 | 371 ft | 25 kts | 69° |
| 2026-04-17 21:17 | 50.03649 | 8.56127 | 375 ft | 27 kts | 69° |
| 2026-04-17 21:17 | 50.03718 | 8.56418 | 373 ft | 29 kts | 70° |
| 2026-04-17 21:17 | 50.03759 | 8.56593 | 373 ft | 10 kts | 70° |
| 2026-04-17 21:17 | 50.03798 | 8.56755 | 374 ft | 18 kts | 69° |
| 2026-04-17 21:18 | 50.03848 | 8.56963 | 369 ft | 22 kts | 69° |
| 2026-04-17 21:18 | 50.03905 | 8.57202 | 374 ft | 25 kts | 69° |
| 2026-04-17 21:18 | 50.03969 | 8.57469 | 375 ft | 27 kts | 69° |
| 2026-04-17 21:18 | 50.04025 | 8.57703 | 374 ft | 24 kts | 69° |
| 2026-04-17 21:19 | 50.04081 | 8.57936 | 372 ft | 16 kts | 69° |
| 2026-04-17 21:19 | 50.04119 | 8.58085 | 374 ft | 8 kts | 62° |
| 2026-04-17 21:19 | 50.04167 | 8.58155 | 373 ft | 11 kts | 25° |
| 2026-04-17 21:19 | 50.04201 | 8.58180 | 375 ft | 0 kts | 25° |
| 2026-04-17 21:21 | 50.04228 | 8.58199 | 376 ft | 11 kts | 25° |
| 2026-04-17 21:22 | 50.04307 | 8.58190 | 375 ft | 13 kts | 340° |
| 2026-04-17 21:22 | 50.04393 | 8.58142 | 376 ft | 10 kts | 339° |
| 2026-04-17 21:22 | 50.04452 | 8.58107 | 375 ft | 10 kts | 339° |
| 2026-04-17 21:22 | 50.04494 | 8.58082 | 375 ft | 4 kts | 339° |
| 2026-04-17 21:23 | 50.04497 | 8.58081 | 375 ft | 0 kts | 339° |
| 2026-04-17 21:24 | 50.04499 | 8.58080 | 375 ft | 2 kts | 339° |
| 2026-04-17 21:24 | 50.04527 | 8.58064 | 372 ft | 6 kts | 339° |
| 2026-04-17 21:24 | 50.04606 | 8.58017 | 375 ft | 18 kts | 339° |
| 2026-04-17 21:25 | 50.04686 | 8.57969 | 375 ft | 11 kts | 330° |
| 2026-04-17 21:25 | 50.04691 | 8.57852 | 373 ft | 14 kts | 255° |
| 2026-04-17 21:25 | 50.04657 | 8.57686 | 373 ft | 18 kts | 251° |
| 2026-04-17 21:25 | 50.04609 | 8.57484 | 373 ft | 22 kts | 249° |
| 2026-04-17 21:26 | 50.04554 | 8.57259 | 372 ft | 17 kts | 249° |
| 2026-04-17 21:26 | 50.04512 | 8.57084 | 375 ft | 16 kts | 249° |
| 2026-04-17 21:26 | 50.04483 | 8.56952 | 372 ft | 10 kts | 259° |
| 2026-04-17 21:26 | 50.04502 | 8.56867 | 375 ft | 8 kts | 313° |
| 2026-04-17 21:27 | 50.04528 | 8.56796 | 372 ft | 0 kts | 294° |
| 2026-04-17 21:27 | 50.04537 | 8.56764 | 374 ft | 0 kts | 294° |
| 2026-04-17 21:27 | 50.04541 | 8.56750 | 377 ft | 0 kts | 294° |